sensor_id;sensor_type;location;lat;lon;timestamp;temperature;humidity
23100;DHT22;53791;50.696;4.396;2023-07-28T00:02:10;17.90;99.90
23100;DHT22;53791;50.696;4.396;2023-07-28T00:07:53;17.90;99.90
23100;DHT22;53791;50.696;4.396;2023-07-28T00:10:27;17.90;99.90
23100;DHT22;53791;50.696;4.396;2023-07-28T00:12:55;17.90;99.90
23100;DHT22;53791;50.696;4.396;2023-07-28T00:15:33;17.90;99.90
23100;DHT22;53791;50.696;4.396;2023-07-28T00:18:09;17.90;99.90
23100;DHT22;53791;50.696;4.396;2023-07-28T00:23:09;17.80;99.90
23100;DHT22;53791;50.696;4.396;2023-07-28T00:25:39;17.90;99.90
23100;DHT22;53791;50.696;4.396;2023-07-28T00:28:08;17.80;99.90
23100;DHT22;53791;50.696;4.396;2023-07-28T00:36:17;17.80;99.90
23100;DHT22;53791;50.696;4.396;2023-07-28T00:38:39;17.80;99.90
23100;DHT22;53791;50.696;4.396;2023-07-28T00:41:25;17.90;99.90
23100;DHT22;53791;50.696;4.396;2023-07-28T00:44:02;17.90;99.90
23100;DHT22;53791;50.696;4.396;2023-07-28T00:46:42;17.80;99.90
23100;DHT22;53791;50.696;4.396;2023-07-28T00:49:23;17.70;99.90
23100;DHT22;53791;50.696;4.396;2023-07-28T00:51:43;17.80;99.90
23100;DHT22;53791;50.696;4.396;2023-07-28T00:54:40;17.80;99.90
23100;DHT22;53791;50.696;4.396;2023-07-28T00:57:21;17.80;99.90
23100;DHT22;53791;50.696;4.396;2023-07-28T00:59:48;17.70;99.90
23100;DHT22;53791;50.696;4.396;2023-07-28T01:02:16;17.70;99.90
23100;DHT22;53791;50.696;4.396;2023-07-28T01:07:22;17.70;99.90
23100;DHT22;53791;50.696;4.396;2023-07-28T01:10:17;17.70;99.90
23100;DHT22;53791;50.696;4.396;2023-07-28T01:12:56;17.60;99.90
23100;DHT22;53791;50.696;4.396;2023-07-28T01:15:28;17.60;99.90
23100;DHT22;53791;50.696;4.396;2023-07-28T01:17:59;17.60;99.90
23100;DHT22;53791;50.696;4.396;2023-07-28T01:20:54;17.60;99.90
23100;DHT22;53791;50.696;4.396;2023-07-28T01:26:08;17.60;99.90
23100;DHT22;53791;50.696;4.396;2023-07-28T01:28:40;17.60;99.90
23100;DHT22;53791;50.696;4.396;2023-07-28T01:31:12;17.60;99.90
23100;DHT22;53791;50.696;4.396;2023-07-28T01:33:56;17.60;99.90
23100;DHT22;53791;50.696;4.396;2023-07-28T01:36:23;17.60;99.90
23100;DHT22;53791;50.696;4.396;2023-07-28T01:38:53;17.60;99.90
23100;DHT22;53791;50.696;4.396;2023-07-28T01:41:20;17.60;99.90
23100;DHT22;53791;50.696;4.396;2023-07-28T01:43:57;17.60;99.90
23100;DHT22;53791;50.696;4.396;2023-07-28T01:46:23;17.70;99.90
23100;DHT22;53791;50.696;4.396;2023-07-28T01:48:50;17.70;99.90
23100;DHT22;53791;50.696;4.396;2023-07-28T01:51:25;17.60;99.90
23100;DHT22;53791;50.696;4.396;2023-07-28T01:54:01;17.60;99.90
23100;DHT22;53791;50.696;4.396;2023-07-28T01:56:36;17.60;99.90
23100;DHT22;53791;50.696;4.396;2023-07-28T01:59:29;17.60;99.90
23100;DHT22;53791;50.696;4.396;2023-07-28T02:01:35;17.60;99.90
23100;DHT22;53791;50.696;4.396;2023-07-28T02:04:07;17.60;99.90
23100;DHT22;53791;50.696;4.396;2023-07-28T02:06:40;17.70;99.90
23100;DHT22;53791;50.696;4.396;2023-07-28T02:09:05;17.70;99.90
23100;DHT22;53791;50.696;4.396;2023-07-28T02:11:39;17.70;99.90
23100;DHT22;53791;50.696;4.396;2023-07-28T02:14:06;17.70;99.90
23100;DHT22;53791;50.696;4.396;2023-07-28T02:16:41;17.70;99.90
23100;DHT22;53791;50.696;4.396;2023-07-28T02:19:06;17.70;99.90
23100;DHT22;53791;50.696;4.396;2023-07-28T02:21:47;17.60;99.90
23100;DHT22;53791;50.696;4.396;2023-07-28T02:24:07;17.60;99.90
23100;DHT22;53791;50.696;4.396;2023-07-28T02:26:38;17.60;99.90
23100;DHT22;53791;50.696;4.396;2023-07-28T02:29:14;17.80;99.90
23100;DHT22;53791;50.696;4.396;2023-07-28T02:31:38;17.70;99.90
23100;DHT22;53791;50.696;4.396;2023-07-28T02:34:15;17.70;99.90
23100;DHT22;53791;50.696;4.396;2023-07-28T02:36:41;17.70;99.90
23100;DHT22;53791;50.696;4.396;2023-07-28T02:39:17;17.80;99.90
23100;DHT22;53791;50.696;4.396;2023-07-28T02:41:44;17.80;99.90
23100;DHT22;53791;50.696;4.396;2023-07-28T02:44:14;17.80;99.90
23100;DHT22;53791;50.696;4.396;2023-07-28T02:46:41;17.80;99.90
23100;DHT22;53791;50.696;4.396;2023-07-28T02:49:14;17.80;99.90
23100;DHT22;53791;50.696;4.396;2023-07-28T02:51:45;17.90;99.90
23100;DHT22;53791;50.696;4.396;2023-07-28T02:54:16;17.90;99.90
23100;DHT22;53791;50.696;4.396;2023-07-28T02:56:45;18.00;99.90
23100;DHT22;53791;50.696;4.396;2023-07-28T02:59:13;17.90;99.90
23100;DHT22;53791;50.696;4.396;2023-07-28T03:01:40;17.90;99.90
23100;DHT22;53791;50.696;4.396;2023-07-28T03:04:11;17.90;99.90
23100;DHT22;53791;50.696;4.396;2023-07-28T03:06:43;17.90;99.90
23100;DHT22;53791;50.696;4.396;2023-07-28T03:09:19;17.90;99.90
23100;DHT22;53791;50.696;4.396;2023-07-28T03:11:49;17.90;99.90
23100;DHT22;53791;50.696;4.396;2023-07-28T03:14:21;17.90;99.90
23100;DHT22;53791;50.696;4.396;2023-07-28T03:16:45;17.90;99.90
23100;DHT22;53791;50.696;4.396;2023-07-28T03:19:14;18.00;99.90
23100;DHT22;53791;50.696;4.396;2023-07-28T03:21:46;18.00;99.90
23100;DHT22;53791;50.696;4.396;2023-07-28T03:26:57;18.00;99.90
23100;DHT22;53791;50.696;4.396;2023-07-28T03:34:35;17.90;99.90
23100;DHT22;53791;50.696;4.396;2023-07-28T03:37:03;18.00;99.90
23100;DHT22;53791;50.696;4.396;2023-07-28T03:39:37;18.00;99.90
23100;DHT22;53791;50.696;4.396;2023-07-28T03:42:10;18.10;99.90
23100;DHT22;53791;50.696;4.396;2023-07-28T03:44:37;18.10;99.90
23100;DHT22;53791;50.696;4.396;2023-07-28T03:47:04;18.20;99.90
23100;DHT22;53791;50.696;4.396;2023-07-28T03:49:35;18.20;99.90
23100;DHT22;53791;50.696;4.396;2023-07-28T03:54:35;18.10;99.90
23100;DHT22;53791;50.696;4.396;2023-07-28T03:57:05;18.20;99.90
23100;DHT22;53791;50.696;4.396;2023-07-28T03:59:33;18.20;99.90
23100;DHT22;53791;50.696;4.396;2023-07-28T04:02:02;18.20;99.90
23100;DHT22;53791;50.696;4.396;2023-07-28T04:04:34;18.20;99.90
23100;DHT22;53791;50.696;4.396;2023-07-28T04:07:05;18.20;99.90
23100;DHT22;53791;50.696;4.396;2023-07-28T04:12:03;18.30;99.90
23100;DHT22;53791;50.696;4.396;2023-07-28T04:14:33;18.30;99.90
23100;DHT22;53791;50.696;4.396;2023-07-28T04:17:03;18.30;99.90
23100;DHT22;53791;50.696;4.396;2023-07-28T04:19:35;18.30;99.90
23100;DHT22;53791;50.696;4.396;2023-07-28T04:22:02;18.10;99.90
23100;DHT22;53791;50.696;4.396;2023-07-28T04:24:31;18.30;99.90
23100;DHT22;53791;50.696;4.396;2023-07-28T04:27:02;18.30;99.90
23100;DHT22;53791;50.696;4.396;2023-07-28T04:29:32;18.20;99.90
23100;DHT22;53791;50.696;4.396;2023-07-28T04:32:00;18.10;99.90
23100;DHT22;53791;50.696;4.396;2023-07-28T04:34:32;18.30;99.90
23100;DHT22;53791;50.696;4.396;2023-07-28T04:37:00;18.30;99.90
23100;DHT22;53791;50.696;4.396;2023-07-28T04:39:32;18.30;99.90
23100;DHT22;53791;50.696;4.396;2023-07-28T04:42:02;18.30;99.90
23100;DHT22;53791;50.696;4.396;2023-07-28T04:44:33;18.30;99.90
23100;DHT22;53791;50.696;4.396;2023-07-28T04:47:02;18.20;99.90
23100;DHT22;53791;50.696;4.396;2023-07-28T04:49:33;18.20;99.90
23100;DHT22;53791;50.696;4.396;2023-07-28T04:52:05;18.30;99.90
23100;DHT22;53791;50.696;4.396;2023-07-28T04:54:33;18.30;99.90
23100;DHT22;53791;50.696;4.396;2023-07-28T04:57:03;18.40;99.90
23100;DHT22;53791;50.696;4.396;2023-07-28T04:59:31;18.40;99.90
23100;DHT22;53791;50.696;4.396;2023-07-28T05:02:04;18.50;99.90
23100;DHT22;53791;50.696;4.396;2023-07-28T05:04:38;18.50;99.90
23100;DHT22;53791;50.696;4.396;2023-07-28T05:09:49;18.40;99.90
23100;DHT22;53791;50.696;4.396;2023-07-28T05:12:25;18.40;99.90
23100;DHT22;53791;50.696;4.396;2023-07-28T05:14:57;18.50;99.90
23100;DHT22;53791;50.696;4.396;2023-07-28T05:17:23;18.50;99.90
23100;DHT22;53791;50.696;4.396;2023-07-28T05:19:56;18.50;99.90
23100;DHT22;53791;50.696;4.396;2023-07-28T05:22:27;18.50;99.90
23100;DHT22;53791;50.696;4.396;2023-07-28T05:25:02;18.60;99.90
23100;DHT22;53791;50.696;4.396;2023-07-28T05:27:46;18.50;99.90
23100;DHT22;53791;50.696;4.396;2023-07-28T05:30:36;18.60;99.90
23100;DHT22;53791;50.696;4.396;2023-07-28T05:33:07;18.60;99.90
23100;DHT22;53791;50.696;4.396;2023-07-28T05:35:36;18.60;99.90
23100;DHT22;53791;50.696;4.396;2023-07-28T05:38:24;18.60;99.90
23100;DHT22;53791;50.696;4.396;2023-07-28T05:43:26;18.60;99.90
23100;DHT22;53791;50.696;4.396;2023-07-28T05:46:03;18.70;99.90
23100;DHT22;53791;50.696;4.396;2023-07-28T05:48:28;18.70;99.90
23100;DHT22;53791;50.696;4.396;2023-07-28T05:51:21;18.70;99.90
23100;DHT22;53791;50.696;4.396;2023-07-28T05:53:49;18.80;99.90
23100;DHT22;53791;50.696;4.396;2023-07-28T05:56:41;18.70;99.90
23100;DHT22;53791;50.696;4.396;2023-07-28T05:59:05;18.70;99.90
23100;DHT22;53791;50.696;4.396;2023-07-28T06:01:32;18.70;99.90
23100;DHT22;53791;50.696;4.396;2023-07-28T06:04:02;18.80;99.90
23100;DHT22;53791;50.696;4.396;2023-07-28T06:06:35;18.80;99.90
23100;DHT22;53791;50.696;4.396;2023-07-28T06:09:03;18.80;99.90
23100;DHT22;53791;50.696;4.396;2023-07-28T06:11:38;18.80;99.90
23100;DHT22;53791;50.696;4.396;2023-07-28T06:14:09;18.80;99.90
23100;DHT22;53791;50.696;4.396;2023-07-28T06:19:37;18.80;99.90
23100;DHT22;53791;50.696;4.396;2023-07-28T06:22:47;18.90;99.90
23100;DHT22;53791;50.696;4.396;2023-07-28T06:24:56;18.90;99.90
23100;DHT22;53791;50.696;4.396;2023-07-28T06:27:36;18.90;99.90
23100;DHT22;53791;50.696;4.396;2023-07-28T06:29:55;18.90;99.90
23100;DHT22;53791;50.696;4.396;2023-07-28T06:32:28;18.90;99.90
23100;DHT22;53791;50.696;4.396;2023-07-28T06:34:59;18.90;99.90
23100;DHT22;53791;50.696;4.396;2023-07-28T06:42:56;18.90;99.90
23100;DHT22;53791;50.696;4.396;2023-07-28T06:45:29;19.00;99.90
23100;DHT22;53791;50.696;4.396;2023-07-28T06:48:01;19.10;99.90
23100;DHT22;53791;50.696;4.396;2023-07-28T06:50:35;19.10;99.90
23100;DHT22;53791;50.696;4.396;2023-07-28T06:53:15;19.10;99.90
23100;DHT22;53791;50.696;4.396;2023-07-28T06:55:36;19.20;99.90
23100;DHT22;53791;50.696;4.396;2023-07-28T06:58:07;19.30;99.90
23100;DHT22;53791;50.696;4.396;2023-07-28T07:00:42;19.30;99.90
23100;DHT22;53791;50.696;4.396;2023-07-28T07:03:16;19.40;99.90
23100;DHT22;53791;50.696;4.396;2023-07-28T07:06:05;19.50;99.90
23100;DHT22;53791;50.696;4.396;2023-07-28T07:11:06;19.50;99.90
23100;DHT22;53791;50.696;4.396;2023-07-28T07:14:34;19.50;99.90
23100;DHT22;53791;50.696;4.396;2023-07-28T07:19:10;19.40;99.90
23100;DHT22;53791;50.696;4.396;2023-07-28T07:21:50;19.40;99.90
23100;DHT22;53791;50.696;4.396;2023-07-28T07:24:19;19.40;99.90
23100;DHT22;53791;50.696;4.396;2023-07-28T07:26:52;19.50;99.90
23100;DHT22;53791;50.696;4.396;2023-07-28T07:29:24;19.60;99.90
23100;DHT22;53791;50.696;4.396;2023-07-28T07:31:53;19.60;99.90
23100;DHT22;53791;50.696;4.396;2023-07-28T07:34:23;19.60;99.90
23100;DHT22;53791;50.696;4.396;2023-07-28T07:37:00;19.60;99.90
23100;DHT22;53791;50.696;4.396;2023-07-28T07:39:31;19.70;99.90
23100;DHT22;53791;50.696;4.396;2023-07-28T07:41:58;19.60;99.90
23100;DHT22;53791;50.696;4.396;2023-07-28T07:44:30;19.70;99.90
23100;DHT22;53791;50.696;4.396;2023-07-28T07:47:11;19.70;99.90
23100;DHT22;53791;50.696;4.396;2023-07-28T07:54:32;19.90;99.90
23100;DHT22;53791;50.696;4.396;2023-07-28T07:57:01;20.00;99.90
23100;DHT22;53791;50.696;4.396;2023-07-28T07:59:30;20.10;99.90
23100;DHT22;53791;50.696;4.396;2023-07-28T08:02:01;20.00;99.90
23100;DHT22;53791;50.696;4.396;2023-07-28T08:04:32;20.00;99.90
23100;DHT22;53791;50.696;4.396;2023-07-28T08:07:00;20.10;99.90
23100;DHT22;53791;50.696;4.396;2023-07-28T08:09:30;20.00;99.90
23100;DHT22;53791;50.696;4.396;2023-07-28T08:12:04;20.10;99.90
23100;DHT22;53791;50.696;4.396;2023-07-28T08:14:44;20.10;99.90
23100;DHT22;53791;50.696;4.396;2023-07-28T08:17:17;20.10;99.90
23100;DHT22;53791;50.696;4.396;2023-07-28T08:19:49;20.10;99.90
23100;DHT22;53791;50.696;4.396;2023-07-28T08:27:30;20.00;99.90
23100;DHT22;53791;50.696;4.396;2023-07-28T08:30:03;20.00;99.90
23100;DHT22;53791;50.696;4.396;2023-07-28T08:32:32;20.00;99.90
23100;DHT22;53791;50.696;4.396;2023-07-28T08:35:06;20.10;99.90
23100;DHT22;53791;50.696;4.396;2023-07-28T08:37:42;20.10;99.90
23100;DHT22;53791;50.696;4.396;2023-07-28T08:40:29;20.10;99.90
23100;DHT22;53791;50.696;4.396;2023-07-28T08:43:03;20.00;99.90
23100;DHT22;53791;50.696;4.396;2023-07-28T08:45:30;19.90;99.90
23100;DHT22;53791;50.696;4.396;2023-07-28T08:48:03;19.90;99.90
23100;DHT22;53791;50.696;4.396;2023-07-28T08:50:29;19.90;99.90
23100;DHT22;53791;50.696;4.396;2023-07-28T08:53:02;20.00;99.90
23100;DHT22;53791;50.696;4.396;2023-07-28T08:55:32;20.00;99.90
23100;DHT22;53791;50.696;4.396;2023-07-28T09:00:40;20.00;99.90
23100;DHT22;53791;50.696;4.396;2023-07-28T09:05:49;20.30;99.90
23100;DHT22;53791;50.696;4.396;2023-07-28T09:08:21;20.50;99.90
23100;DHT22;53791;50.696;4.396;2023-07-28T09:10:54;20.60;99.90
23100;DHT22;53791;50.696;4.396;2023-07-28T09:16:00;20.50;99.90
23100;DHT22;53791;50.696;4.396;2023-07-28T09:18:34;20.50;99.90
23100;DHT22;53791;50.696;4.396;2023-07-28T09:21:01;20.50;99.90
23100;DHT22;53791;50.696;4.396;2023-07-28T09:23:35;20.30;99.90
23100;DHT22;53791;50.696;4.396;2023-07-28T09:26:03;20.30;99.90
23100;DHT22;53791;50.696;4.396;2023-07-28T09:28:39;20.30;99.90
23100;DHT22;53791;50.696;4.396;2023-07-28T09:31:08;20.30;99.90
23100;DHT22;53791;50.696;4.396;2023-07-28T09:33:38;20.30;99.90
23100;DHT22;53791;50.696;4.396;2023-07-28T09:36:09;20.30;99.90
23100;DHT22;53791;50.696;4.396;2023-07-28T09:38:39;20.40;99.90
23100;DHT22;53791;50.696;4.396;2023-07-28T09:41:08;20.30;99.90
23100;DHT22;53791;50.696;4.396;2023-07-28T09:43:38;20.30;99.90
23100;DHT22;53791;50.696;4.396;2023-07-28T09:48:59;20.30;99.90
23100;DHT22;53791;50.696;4.396;2023-07-28T09:51:31;20.30;99.90
23100;DHT22;53791;50.696;4.396;2023-07-28T09:54:11;20.30;99.90
23100;DHT22;53791;50.696;4.396;2023-07-28T09:56:38;20.40;99.90
23100;DHT22;53791;50.696;4.396;2023-07-28T09:59:22;20.20;99.90
23100;DHT22;53791;50.696;4.396;2023-07-28T10:02:01;20.00;99.90
23100;DHT22;53791;50.696;4.396;2023-07-28T10:04:36;20.00;99.90
23100;DHT22;53791;50.696;4.396;2023-07-28T10:07:12;20.00;99.90
23100;DHT22;53791;50.696;4.396;2023-07-28T10:15:11;20.20;99.90
23100;DHT22;53791;50.696;4.396;2023-07-28T10:17:35;20.20;99.90
23100;DHT22;53791;50.696;4.396;2023-07-28T10:20:05;20.20;99.90
23100;DHT22;53791;50.696;4.396;2023-07-28T10:22:44;20.20;99.90
23100;DHT22;53791;50.696;4.396;2023-07-28T10:25:25;20.10;99.90
23100;DHT22;53791;50.696;4.396;2023-07-28T10:30:27;20.20;99.90
23100;DHT22;53791;50.696;4.396;2023-07-28T10:32:58;20.20;99.90
23100;DHT22;53791;50.696;4.396;2023-07-28T10:35:41;20.20;99.90
23100;DHT22;53791;50.696;4.396;2023-07-28T10:41:19;20.20;99.90
23100;DHT22;53791;50.696;4.396;2023-07-28T10:43:53;20.10;99.90
23100;DHT22;53791;50.696;4.396;2023-07-28T10:46:21;20.20;99.90
23100;DHT22;53791;50.696;4.396;2023-07-28T10:48:53;20.10;99.90
23100;DHT22;53791;50.696;4.396;2023-07-28T10:51:26;20.20;99.90
23100;DHT22;53791;50.696;4.396;2023-07-28T10:54:34;20.20;99.90
23100;DHT22;53791;50.696;4.396;2023-07-28T10:56:44;20.30;99.90
23100;DHT22;53791;50.696;4.396;2023-07-28T10:59:08;20.40;99.90
23100;DHT22;53791;50.696;4.396;2023-07-28T11:01:42;20.50;99.90
23100;DHT22;53791;50.696;4.396;2023-07-28T11:04:10;20.60;99.90
23100;DHT22;53791;50.696;4.396;2023-07-28T11:06:45;20.60;99.90
23100;DHT22;53791;50.696;4.396;2023-07-28T11:09:16;20.60;99.90
23100;DHT22;53791;50.696;4.396;2023-07-28T11:14:15;20.30;99.90
23100;DHT22;53791;50.696;4.396;2023-07-28T11:16:47;20.30;99.90
23100;DHT22;53791;50.696;4.396;2023-07-28T11:19:20;20.30;99.90
23100;DHT22;53791;50.696;4.396;2023-07-28T11:21:48;20.20;99.90
23100;DHT22;53791;50.696;4.396;2023-07-28T11:24:18;20.30;99.90
23100;DHT22;53791;50.696;4.396;2023-07-28T11:26:52;20.20;99.90
23100;DHT22;53791;50.696;4.396;2023-07-28T11:29:16;20.20;99.90
23100;DHT22;53791;50.696;4.396;2023-07-28T11:31:45;20.20;99.90
23100;DHT22;53791;50.696;4.396;2023-07-28T11:34:18;20.30;99.90
23100;DHT22;53791;50.696;4.396;2023-07-28T11:36:59;20.40;99.90
23100;DHT22;53791;50.696;4.396;2023-07-28T11:39:24;20.30;99.90
23100;DHT22;53791;50.696;4.396;2023-07-28T11:41:54;20.30;99.90
23100;DHT22;53791;50.696;4.396;2023-07-28T11:44:24;20.20;99.90
23100;DHT22;53791;50.696;4.396;2023-07-28T11:46:54;20.30;99.90
23100;DHT22;53791;50.696;4.396;2023-07-28T11:49:27;20.20;99.90
23100;DHT22;53791;50.696;4.396;2023-07-28T11:52:00;20.30;99.90
23100;DHT22;53791;50.696;4.396;2023-07-28T11:59:47;20.50;99.90
23100;DHT22;53791;50.696;4.396;2023-07-28T12:04:56;20.70;99.90
23100;DHT22;53791;50.696;4.396;2023-07-28T12:07:28;20.70;99.90
23100;DHT22;53791;50.696;4.396;2023-07-28T12:10:03;20.90;99.90
23100;DHT22;53791;50.696;4.396;2023-07-28T12:17:39;20.90;99.90
23100;DHT22;53791;50.696;4.396;2023-07-28T12:20:07;21.00;99.90
23100;DHT22;53791;50.696;4.396;2023-07-28T12:22:41;21.10;99.90
23100;DHT22;53791;50.696;4.396;2023-07-28T12:25:14;21.20;99.90
23100;DHT22;53791;50.696;4.396;2023-07-28T12:27:43;21.30;99.90
23100;DHT22;53791;50.696;4.396;2023-07-28T12:30:14;21.40;99.90
23100;DHT22;53791;50.696;4.396;2023-07-28T12:32:48;21.20;99.90
23100;DHT22;53791;50.696;4.396;2023-07-28T12:35:16;21.30;99.90
23100;DHT22;53791;50.696;4.396;2023-07-28T12:40:15;21.50;99.90
23100;DHT22;53791;50.696;4.396;2023-07-28T12:42:47;21.60;99.90
23100;DHT22;53791;50.696;4.396;2023-07-28T12:45:17;21.70;99.90
23100;DHT22;53791;50.696;4.396;2023-07-28T12:47:47;21.70;99.90
23100;DHT22;53791;50.696;4.396;2023-07-28T12:50:14;21.70;99.90
23100;DHT22;53791;50.696;4.396;2023-07-28T12:52:49;21.70;99.90
23100;DHT22;53791;50.696;4.396;2023-07-28T12:55:13;21.70;99.90
23100;DHT22;53791;50.696;4.396;2023-07-28T12:57:40;21.90;99.90
23100;DHT22;53791;50.696;4.396;2023-07-28T13:00:10;22.00;99.90
23100;DHT22;53791;50.696;4.396;2023-07-28T13:02:45;22.00;99.90
23100;DHT22;53791;50.696;4.396;2023-07-28T13:05:15;22.10;99.90
23100;DHT22;53791;50.696;4.396;2023-07-28T13:07:43;22.20;99.90
23100;DHT22;53791;50.696;4.396;2023-07-28T13:10:11;22.20;99.90
23100;DHT22;53791;50.696;4.396;2023-07-28T13:12:39;22.20;99.90
23100;DHT22;53791;50.696;4.396;2023-07-28T13:15:07;22.40;99.90
23100;DHT22;53791;50.696;4.396;2023-07-28T13:17:34;22.40;99.90
23100;DHT22;53791;50.696;4.396;2023-07-28T13:20:02;22.40;99.90
23100;DHT22;53791;50.696;4.396;2023-07-28T13:22:30;22.30;99.90
23100;DHT22;53791;50.696;4.396;2023-07-28T13:24:58;22.20;99.90
23100;DHT22;53791;50.696;4.396;2023-07-28T13:27:25;22.40;99.90
23100;DHT22;53791;50.696;4.396;2023-07-28T13:29:53;22.60;99.90
23100;DHT22;53791;50.696;4.396;2023-07-28T13:32:24;22.60;99.90
23100;DHT22;53791;50.696;4.396;2023-07-28T13:34:52;22.70;99.90
23100;DHT22;53791;50.696;4.396;2023-07-28T13:37:20;23.00;99.90
23100;DHT22;53791;50.696;4.396;2023-07-28T13:39:47;23.30;99.90
23100;DHT22;53791;50.696;4.396;2023-07-28T13:42:15;23.40;99.90
23100;DHT22;53791;50.696;4.396;2023-07-28T13:44:43;23.70;99.90
23100;DHT22;53791;50.696;4.396;2023-07-28T13:47:10;24.00;99.90
23100;DHT22;53791;50.696;4.396;2023-07-28T13:49:38;24.20;99.90
23100;DHT22;53791;50.696;4.396;2023-07-28T13:52:06;24.30;99.90
23100;DHT22;53791;50.696;4.396;2023-07-28T13:54:34;24.60;99.90
23100;DHT22;53791;50.696;4.396;2023-07-28T13:57:01;24.90;99.90
23100;DHT22;53791;50.696;4.396;2023-07-28T13:59:29;24.50;99.90
23100;DHT22;53791;50.696;4.396;2023-07-28T14:01:56;24.20;99.90
23100;DHT22;53791;50.696;4.396;2023-07-28T14:04:24;23.70;99.90
23100;DHT22;53791;50.696;4.396;2023-07-28T14:06:52;23.60;99.90
23100;DHT22;53791;50.696;4.396;2023-07-28T14:09:19;23.60;99.90
23100;DHT22;53791;50.696;4.396;2023-07-28T14:11:47;23.80;99.90
23100;DHT22;53791;50.696;4.396;2023-07-28T14:14:14;23.90;99.90
23100;DHT22;53791;50.696;4.396;2023-07-28T14:16:42;24.20;99.90
23100;DHT22;53791;50.696;4.396;2023-07-28T14:19:11;24.20;99.90
23100;DHT22;53791;50.696;4.396;2023-07-28T14:21:39;24.30;99.90
23100;DHT22;53791;50.696;4.396;2023-07-28T14:24:06;24.20;99.90
23100;DHT22;53791;50.696;4.396;2023-07-28T14:26:34;24.40;99.90
23100;DHT22;53791;50.696;4.396;2023-07-28T14:29:01;24.50;99.90
23100;DHT22;53791;50.696;4.396;2023-07-28T14:31:29;24.60;99.90
23100;DHT22;53791;50.696;4.396;2023-07-28T14:33:56;24.70;99.90
23100;DHT22;53791;50.696;4.396;2023-07-28T14:36:24;24.80;99.90
23100;DHT22;53791;50.696;4.396;2023-07-28T14:38:51;24.60;99.90
23100;DHT22;53791;50.696;4.396;2023-07-28T14:41:19;24.70;99.90
23100;DHT22;53791;50.696;4.396;2023-07-28T14:43:46;24.80;99.90
23100;DHT22;53791;50.696;4.396;2023-07-28T14:46:14;25.10;99.90
23100;DHT22;53791;50.696;4.396;2023-07-28T14:48:43;25.40;99.90
23100;DHT22;53791;50.696;4.396;2023-07-28T14:51:11;25.50;99.90
23100;DHT22;53791;50.696;4.396;2023-07-28T14:53:39;25.20;99.90
23100;DHT22;53791;50.696;4.396;2023-07-28T14:56:07;25.10;99.90
23100;DHT22;53791;50.696;4.396;2023-07-28T14:58:35;25.00;99.90
23100;DHT22;53791;50.696;4.396;2023-07-28T15:01:03;25.10;99.90
23100;DHT22;53791;50.696;4.396;2023-07-28T15:03:32;25.30;99.90
23100;DHT22;53791;50.696;4.396;2023-07-28T15:06:01;25.30;99.90
23100;DHT22;53791;50.696;4.396;2023-07-28T15:08:29;25.40;99.90
23100;DHT22;53791;50.696;4.396;2023-07-28T15:10:57;25.60;99.90
23100;DHT22;53791;50.696;4.396;2023-07-28T15:13:25;25.60;99.90
23100;DHT22;53791;50.696;4.396;2023-07-28T15:15:53;25.40;99.90
23100;DHT22;53791;50.696;4.396;2023-07-28T15:18:21;25.50;99.90
23100;DHT22;53791;50.696;4.396;2023-07-28T15:20:48;25.60;99.90
23100;DHT22;53791;50.696;4.396;2023-07-28T15:23:16;25.80;99.90
23100;DHT22;53791;50.696;4.396;2023-07-28T15:25:44;25.60;99.90
23100;DHT22;53791;50.696;4.396;2023-07-28T15:28:14;25.90;99.90
23100;DHT22;53791;50.696;4.396;2023-07-28T15:30:42;26.10;99.90
23100;DHT22;53791;50.696;4.396;2023-07-28T15:33:09;26.20;99.90
23100;DHT22;53791;50.696;4.396;2023-07-28T15:35:37;26.30;99.90
23100;DHT22;53791;50.696;4.396;2023-07-28T15:38:05;26.10;99.90
23100;DHT22;53791;50.696;4.396;2023-07-28T15:40:32;25.70;99.90
23100;DHT22;53791;50.696;4.396;2023-07-28T15:43:00;25.20;99.90
23100;DHT22;53791;50.696;4.396;2023-07-28T15:45:28;24.90;99.90
23100;DHT22;53791;50.696;4.396;2023-07-28T15:47:55;24.90;99.90
23100;DHT22;53791;50.696;4.396;2023-07-28T15:50:23;24.80;99.90
23100;DHT22;53791;50.696;4.396;2023-07-28T15:52:50;24.70;99.90
23100;DHT22;53791;50.696;4.396;2023-07-28T15:55:19;24.60;99.90
23100;DHT22;53791;50.696;4.396;2023-07-28T15:57:47;24.40;99.90
23100;DHT22;53791;50.696;4.396;2023-07-28T16:00:15;24.20;99.90
23100;DHT22;53791;50.696;4.396;2023-07-28T16:02:43;24.30;99.90
23100;DHT22;53791;50.696;4.396;2023-07-28T16:05:10;24.30;99.90
23100;DHT22;53791;50.696;4.396;2023-07-28T16:07:38;24.50;99.90
23100;DHT22;53791;50.696;4.396;2023-07-28T16:10:07;24.60;99.90
23100;DHT22;53791;50.696;4.396;2023-07-28T16:12:36;24.80;99.90
23100;DHT22;53791;50.696;4.396;2023-07-28T16:15:03;24.90;99.90
23100;DHT22;53791;50.696;4.396;2023-07-28T16:17:31;25.00;99.90
23100;DHT22;53791;50.696;4.396;2023-07-28T16:19:59;24.80;99.90
23100;DHT22;53791;50.696;4.396;2023-07-28T16:22:26;24.90;99.90
23100;DHT22;53791;50.696;4.396;2023-07-28T16:24:54;24.80;99.90
23100;DHT22;53791;50.696;4.396;2023-07-28T16:27:22;24.60;99.90
23100;DHT22;53791;50.696;4.396;2023-07-28T16:29:51;24.70;99.90
23100;DHT22;53791;50.696;4.396;2023-07-28T16:32:18;24.50;99.90
23100;DHT22;53791;50.696;4.396;2023-07-28T16:34:46;24.30;99.90
23100;DHT22;53791;50.696;4.396;2023-07-28T16:37:13;24.20;99.90
23100;DHT22;53791;50.696;4.396;2023-07-28T16:39:41;24.10;99.90
23100;DHT22;53791;50.696;4.396;2023-07-28T16:42:08;24.00;99.90
23100;DHT22;53791;50.696;4.396;2023-07-28T16:44:36;23.90;99.90
23100;DHT22;53791;50.696;4.396;2023-07-28T16:47:06;24.00;99.90
23100;DHT22;53791;50.696;4.396;2023-07-28T16:49:33;24.00;99.90
23100;DHT22;53791;50.696;4.396;2023-07-28T16:52:01;23.90;99.90
23100;DHT22;53791;50.696;4.396;2023-07-28T16:54:29;23.80;99.90
23100;DHT22;53791;50.696;4.396;2023-07-28T16:56:58;23.90;99.90
23100;DHT22;53791;50.696;4.396;2023-07-28T16:59:25;23.80;99.90
23100;DHT22;53791;50.696;4.396;2023-07-28T17:01:53;23.80;99.90
23100;DHT22;53791;50.696;4.396;2023-07-28T17:04:21;23.70;99.90
23100;DHT22;53791;50.696;4.396;2023-07-28T17:06:48;23.80;99.90
23100;DHT22;53791;50.696;4.396;2023-07-28T17:09:16;23.80;99.90
23100;DHT22;53791;50.696;4.396;2023-07-28T17:11:43;23.80;99.90
23100;DHT22;53791;50.696;4.396;2023-07-28T17:14:11;23.90;99.90
23100;DHT22;53791;50.696;4.396;2023-07-28T17:16:39;24.00;99.90
23100;DHT22;53791;50.696;4.396;2023-07-28T17:19:06;24.10;99.90
23100;DHT22;53791;50.696;4.396;2023-07-28T17:21:34;24.20;99.90
23100;DHT22;53791;50.696;4.396;2023-07-28T17:24:01;24.20;99.90
23100;DHT22;53791;50.696;4.396;2023-07-28T17:26:29;24.20;99.90
23100;DHT22;53791;50.696;4.396;2023-07-28T17:28:58;24.20;99.90
23100;DHT22;53791;50.696;4.396;2023-07-28T17:31:25;24.20;99.90